createdAt,value
2017-06-15T00:01:15.896Z,23.17
2017-06-15T00:02:16.158Z,23.13
2017-06-15T00:03:16.096Z,23.13
2017-06-15T00:04:16.031Z,23.1
2017-06-15T00:05:15.971Z,23.17
2017-06-15T00:06:15.909Z,23.17
2017-06-15T00:07:15.189Z,23.13
2017-06-15T00:08:15.126Z,23.08
2017-06-15T00:09:15.393Z,23.09
2017-06-15T00:10:15.330Z,23.09
2017-06-15T00:11:15.598Z,23.13
2017-06-15T00:12:15.536Z,23.1
2017-06-15T00:13:15.472Z,23.12
2017-06-15T00:14:15.413Z,23.09
2017-06-15T00:15:15.347Z,23.09
2017-06-15T00:16:14.965Z,23.13
2017-06-15T00:17:15.230Z,23.13
2017-06-15T00:18:15.160Z,23.13
2017-06-15T00:19:15.100Z,23.12
2017-06-15T00:20:14.709Z,23.13
2017-06-15T00:21:14.980Z,23.09
2017-06-15T00:22:14.910Z,23.12
2017-06-15T00:23:14.848Z,23.09
2017-06-15T00:24:14.785Z,23.1
2017-06-15T00:25:14.730Z,23.13
2017-06-15T00:26:14.659Z,23.12
2017-06-15T00:27:14.601Z,23.17
2017-06-15T00:28:14.207Z,23.12
2017-06-15T00:29:14.477Z,23.17
2017-06-15T00:30:14.414Z,23.08
2017-06-15T00:31:14.353Z,23.08
2017-06-15T00:32:14.287Z,23.08
2017-06-15T00:33:14.232Z,23.15
2017-06-15T00:34:14.162Z,23.17
2017-06-15T00:35:14.101Z,23.08
2017-06-15T00:36:14.036Z,23.09
2017-06-15T00:37:13.976Z,23.17
2017-06-15T00:38:13.912Z,23.05
2017-06-15T00:39:13.525Z,23.08
2017-06-15T00:40:13.792Z,23.15
2017-06-15T00:41:13.724Z,23.12
2017-06-15T00:42:13.666Z,23.09
2017-06-15T00:43:13.635Z,23.13
2017-06-15T00:44:13.537Z,23.05
2017-06-15T00:45:13.511Z,23.05
2017-06-15T00:46:13.413Z,23.1
2017-06-15T00:47:13.356Z,23.08
2017-06-15T00:48:13.288Z,23.12
2017-06-15T00:49:13.226Z,23.09
2017-06-15T00:50:13.164Z,23.02
2017-06-15T00:51:13.102Z,23.06
2017-06-15T00:52:13.039Z,23.12
2017-06-15T00:53:12.976Z,23.03
2017-06-15T00:54:12.914Z,23.06
2017-06-15T00:55:12.853Z,23.08
2017-06-15T00:56:12.790Z,23.05
2017-06-15T00:57:12.728Z,23.05
2017-06-15T00:58:12.342Z,23.05
2017-06-15T00:59:12.612Z,23.06
2017-06-15T01:00:12.544Z,23.02
2017-06-15T01:01:12.477Z,23.02
2017-06-15T01:02:12.449Z,23.09
2017-06-15T01:03:12.351Z,23.02
2017-06-15T01:04:12.292Z,23.08
2017-06-15T01:05:12.231Z,23.05
2017-06-15T01:06:12.167Z,23.03
2017-06-15T01:07:12.103Z,23.03
2017-06-15T01:08:12.043Z,23.03
2017-06-15T01:09:11.978Z,23.05
2017-06-15T01:10:11.918Z,23.08
2017-06-15T01:11:11.852Z,23.08
2017-06-15T01:12:11.476Z,22.99
2017-06-15T01:13:11.733Z,23.03
2017-06-15T01:14:11.669Z,23
2017-06-15T01:15:11.275Z,23.05
2017-06-15T01:16:11.542Z,23.03
2017-06-15T01:17:11.481Z,23.02
2017-06-15T01:18:11.419Z,23.05
2017-06-15T01:19:11.355Z,23.08
2017-06-15T01:20:11.299Z,23.03
2017-06-15T01:21:11.231Z,23.05
2017-06-15T01:22:11.169Z,23.05
2017-06-15T01:23:11.356Z,22.99
2017-06-15T01:24:11.046Z,23.02
2017-06-15T01:25:10.984Z,23.06
2017-06-15T01:26:10.921Z,23.03
2017-06-15T01:27:10.854Z,23.05
2017-06-15T01:28:10.792Z,23.03
2017-06-15T01:29:10.764Z,23
2017-06-15T01:30:10.819Z,23.02
2017-06-15T01:31:10.609Z,23.05
2017-06-15T01:32:10.231Z,23
2017-06-15T01:33:10.480Z,23
2017-06-15T01:34:10.420Z,23.03
2017-06-15T01:35:10.459Z,23.05
2017-06-15T01:36:09.966Z,23.03
2017-06-15T01:37:10.235Z,23
2017-06-15T01:38:10.174Z,22.96
2017-06-15T01:39:10.108Z,23.02
2017-06-15T01:40:10.046Z,23
2017-06-15T01:41:09.982Z,23.03
2017-06-15T01:42:09.923Z,22.99
2017-06-15T01:43:09.855Z,23
2017-06-15T01:44:09.466Z,22.99
2017-06-15T01:45:09.732Z,23
2017-06-15T01:46:09.670Z,23.02
2017-06-15T01:47:09.607Z,23.02
2017-06-15T01:48:09.547Z,23.02
2017-06-15T01:49:09.485Z,23.02
2017-06-15T01:50:09.421Z,22.93
2017-06-15T01:51:09.365Z,23
2017-06-15T01:52:09.296Z,22.98
2017-06-15T01:53:09.233Z,22.91
2017-06-15T01:54:09.170Z,22.93
2017-06-15T01:55:09.112Z,22.99
2017-06-15T01:56:09.046Z,23.02
2017-06-15T01:57:08.984Z,22.99
2017-06-15T01:58:08.921Z,23.03
2017-06-15T01:59:08.861Z,22.96
2017-06-15T02:00:08.800Z,22.93
2017-06-15T02:01:08.734Z,22.98
2017-06-15T02:02:08.343Z,23
2017-06-15T02:03:08.613Z,22.88
2017-06-15T02:04:08.546Z,22.93
2017-06-15T02:05:08.484Z,22.99
2017-06-15T02:06:08.093Z,22.99
2017-06-15T02:07:08.364Z,22.98
2017-06-15T02:08:08.293Z,22.98
2017-06-15T02:09:08.238Z,22.87
2017-06-15T02:10:07.848Z,22.93
2017-06-15T02:11:08.310Z,22.99
2017-06-15T02:12:08.045Z,22.91
2017-06-15T02:13:07.983Z,22.98
2017-06-15T02:14:07.593Z,22.94
2017-06-15T02:15:07.529Z,22.98
2017-06-15T02:16:07.840Z,22.94
2017-06-15T02:17:07.735Z,22.98
2017-06-15T02:18:07.671Z,22.9
2017-06-15T02:19:07.609Z,22.98
2017-06-15T02:20:07.223Z,22.96
2017-06-15T02:21:07.488Z,23
2017-06-15T02:22:07.095Z,22.98
2017-06-15T02:23:07.364Z,22.91
2017-06-15T02:24:07.295Z,22.93
2017-06-15T02:25:07.235Z,22.88
2017-06-15T02:26:06.519Z,22.87
2017-06-15T02:27:07.111Z,22.87
2017-06-15T02:28:07.048Z,22.94
2017-06-15T02:29:06.987Z,23.02
2017-06-15T02:30:06.596Z,22.91
2017-06-15T02:31:06.862Z,22.99
2017-06-15T02:32:06.799Z,22.96
2017-06-15T02:33:06.737Z,23
2017-06-15T02:34:06.670Z,23
2017-06-15T02:35:06.609Z,22.98
2017-06-15T02:36:06.553Z,22.99
2017-06-15T02:37:06.485Z,22.91
2017-06-15T02:38:06.423Z,23
2017-06-15T02:39:06.358Z,22.99
2017-06-15T02:40:06.298Z,22.99
2017-06-15T02:41:06.236Z,22.96
2017-06-15T02:42:06.174Z,23.02
2017-06-15T02:43:06.114Z,23.03
2017-06-15T02:44:06.047Z,23.02
2017-06-15T02:45:06.224Z,22.96
2017-06-15T02:46:05.922Z,22.99
2017-06-15T02:47:05.859Z,22.99
2017-06-15T02:48:05.799Z,22.99
2017-06-15T02:49:05.735Z,23.02
2017-06-15T02:50:05.672Z,22.94
2017-06-15T02:51:05.611Z,22.91
2017-06-15T02:52:05.545Z,22.91
2017-06-15T02:53:05.489Z,22.98
2017-06-15T02:54:05.421Z,22.96
2017-06-15T02:55:05.031Z,22.94
2017-06-15T02:56:05.300Z,22.99
2017-06-15T02:57:05.237Z,22.94
2017-06-15T02:58:05.171Z,22.9
2017-06-15T02:59:05.111Z,23
2017-06-15T03:00:05.049Z,22.96
2017-06-15T03:01:04.986Z,22.94
2017-06-15T03:02:04.595Z,22.99
2017-06-15T03:03:04.858Z,22.88
2017-06-15T03:04:04.798Z,22.9
2017-06-15T03:05:04.736Z,22.9
2017-06-15T03:06:04.673Z,22.94
2017-06-15T03:07:04.612Z,22.96
2017-06-15T03:08:04.548Z,22.88
2017-06-15T03:09:04.494Z,22.94
2017-06-15T03:10:04.436Z,22.94
2017-06-15T03:11:04.359Z,22.98
2017-06-15T03:12:04.304Z,22.84
2017-06-15T03:13:04.238Z,22.9
2017-06-15T03:14:04.176Z,22.96
2017-06-15T03:15:04.111Z,22.94
2017-06-15T03:16:04.051Z,23.02
2017-06-15T03:17:03.988Z,22.98
2017-06-15T03:18:03.932Z,22.98
2017-06-15T03:19:03.864Z,22.91
2017-06-15T03:20:03.799Z,22.87
2017-06-15T03:21:03.735Z,22.98
2017-06-15T03:22:03.678Z,22.96
2017-06-15T03:23:03.613Z,22.98
2017-06-15T03:24:03.794Z,22.93
2017-06-15T03:25:03.486Z,22.93
2017-06-15T03:26:03.426Z,22.98
2017-06-15T03:27:03.363Z,22.88
2017-06-15T03:28:02.975Z,22.98
2017-06-15T03:29:03.235Z,22.98
2017-06-15T03:30:03.181Z,22.94
2017-06-15T03:31:03.111Z,22.94
2017-06-15T03:32:03.047Z,22.99
2017-06-15T03:33:02.665Z,22.93
2017-06-15T03:34:03.130Z,22.87
2017-06-15T03:35:03.063Z,22.94
2017-06-15T03:36:03.037Z,22.9
2017-06-15T03:37:02.737Z,22.93
2017-06-15T03:38:02.879Z,22.99
2017-06-15T03:39:02.612Z,22.98
2017-06-15T03:40:02.550Z,22.98
2017-06-15T03:41:02.694Z,22.99
2017-06-15T03:42:02.432Z,22.93
2017-06-15T03:43:02.362Z,22.96
2017-06-15T03:44:02.300Z,22.87
2017-06-15T03:45:02.238Z,22.98
2017-06-15T03:46:02.176Z,22.99
2017-06-15T03:47:01.783Z,22.96
2017-06-15T03:48:02.054Z,23
2017-06-15T03:49:01.988Z,22.94
2017-06-15T03:50:01.928Z,22.96
2017-06-15T03:51:01.866Z,22.87
2017-06-15T03:52:01.801Z,22.88
2017-06-15T03:53:01.735Z,23
2017-06-15T03:54:01.677Z,22.94
2017-06-15T03:55:01.611Z,22.98
2017-06-15T03:56:01.553Z,22.99
2017-06-15T03:57:01.160Z,22.93
2017-06-15T03:58:01.096Z,22.91
2017-06-15T03:59:01.361Z,22.96
2017-06-15T04:00:01.414Z,22.99
2017-06-15T04:01:01.440Z,22.94
2017-06-15T04:02:00.845Z,22.98
2017-06-15T04:03:00.797Z,22.94
2017-06-15T04:04:01.049Z,22.9
2017-06-15T04:05:00.986Z,22.91
2017-06-15T04:06:00.924Z,22.98
2017-06-15T04:07:00.862Z,22.98
2017-06-15T04:08:00.799Z,22.91
2017-06-15T04:09:00.737Z,22.96
2017-06-15T04:10:00.675Z,22.93
2017-06-15T04:11:00.612Z,22.94
2017-06-15T04:12:00.754Z,22.99
2017-06-15T04:13:00.486Z,23
2017-06-15T04:14:00.429Z,23
2017-06-15T04:15:00.607Z,22.99
2017-06-15T04:16:00.301Z,23
2017-06-15T04:17:00.238Z,23
2017-06-15T04:18:00.177Z,23.02
2017-06-15T04:19:00.116Z,23.02
2017-06-15T04:20:00.053Z,22.96
2017-06-15T04:20:59.986Z,23
2017-06-15T04:21:59.927Z,22.96
2017-06-15T04:22:59.864Z,23.03
2017-06-15T04:23:59.801Z,23.02
2017-06-15T04:24:59.739Z,23.02
2017-06-15T04:25:59.675Z,23.05
2017-06-15T04:26:59.613Z,23.03
2017-06-15T04:27:59.567Z,23.03
2017-06-15T04:28:59.160Z,23
2017-06-15T04:29:59.099Z,23.03
2017-06-15T04:30:59.365Z,23.02
2017-06-15T04:31:59.301Z,23.02
2017-06-15T04:32:59.241Z,23
2017-06-15T04:33:59.176Z,22.96
2017-06-15T04:34:59.112Z,23.05
2017-06-15T04:35:59.051Z,23
2017-06-15T04:36:58.988Z,22.98
2017-06-15T04:37:58.928Z,23.02
2017-06-15T04:38:58.867Z,23.02
2017-06-15T04:39:58.801Z,23.03
2017-06-15T04:40:58.745Z,23.03
2017-06-15T04:41:58.677Z,23.05
2017-06-15T04:42:58.623Z,22.99
2017-06-15T04:43:58.553Z,23.05
2017-06-15T04:44:58.488Z,23
2017-06-15T04:45:58.456Z,23.03
2017-06-15T04:46:58.363Z,23.02
2017-06-15T04:47:58.304Z,23.02
2017-06-15T04:48:58.240Z,23
2017-06-15T04:49:58.178Z,23.05
2017-06-15T04:50:58.122Z,23.03
2017-06-15T04:51:58.052Z,23.03
2017-06-15T04:52:57.995Z,22.96
2017-06-15T04:53:57.928Z,23.03
2017-06-15T04:54:57.870Z,23
2017-06-15T04:55:57.802Z,23
2017-06-15T04:56:57.742Z,23.02
2017-06-15T04:57:57.679Z,23.03
2017-06-15T04:58:57.615Z,23.02
2017-06-15T04:59:57.555Z,23.05
2017-06-15T05:00:57.494Z,23.08
2017-06-15T05:01:57.427Z,23.03
2017-06-15T05:02:57.369Z,23.06
2017-06-15T05:03:57.305Z,23.06
2017-06-15T05:04:57.241Z,23.03
2017-06-15T05:05:57.179Z,23
2017-06-15T05:06:57.115Z,23.06
2017-06-15T05:07:56.727Z,23.03
2017-06-15T05:08:56.991Z,23.02
2017-06-15T05:09:56.928Z,23.06
2017-06-15T05:10:56.871Z,23.05
2017-06-15T05:11:56.802Z,23.03
2017-06-15T05:12:56.742Z,23.06
2017-06-15T05:13:56.683Z,23.02
2017-06-15T05:14:56.616Z,23.02
2017-06-15T05:15:56.554Z,23.06
2017-06-15T05:16:56.492Z,23.03
2017-06-15T05:17:56.428Z,23.03
2017-06-15T05:18:56.369Z,23.02
2017-06-15T05:19:56.307Z,22.98
2017-06-15T05:20:56.242Z,23.03
2017-06-15T05:21:56.183Z,23
2017-06-15T05:22:56.123Z,23.02
2017-06-15T05:23:56.055Z,23.03
2017-06-15T05:24:55.995Z,23.05
2017-06-15T05:25:55.931Z,23.06
2017-06-15T05:26:55.868Z,22.98
2017-06-15T05:27:55.807Z,23.03
2017-06-15T05:28:55.740Z,23.06
2017-06-15T05:29:55.682Z,23.02
2017-06-15T05:30:55.617Z,23.06
2017-06-15T05:31:55.554Z,23.02
2017-06-15T05:32:55.493Z,23
2017-06-15T05:33:55.433Z,23
2017-06-15T05:34:55.370Z,23
2017-06-15T05:35:55.304Z,23
2017-06-15T05:36:55.243Z,23
2017-06-15T05:37:55.182Z,23.02
2017-06-15T05:38:54.789Z,23.03
2017-06-15T05:39:55.056Z,22.96
2017-06-15T05:40:54.993Z,23
2017-06-15T05:41:54.931Z,23.02
2017-06-15T05:42:54.870Z,23.02
2017-06-15T05:43:54.804Z,23.02
2017-06-15T05:44:54.745Z,23.05
2017-06-15T05:45:54.691Z,23
2017-06-15T05:46:54.619Z,23.02
2017-06-15T05:47:54.555Z,22.99
2017-06-15T05:48:54.492Z,23.02
2017-06-15T05:49:54.430Z,23.02
2017-06-15T05:50:54.368Z,23.02
2017-06-15T05:51:54.305Z,23.05
2017-06-15T05:52:54.252Z,23.06
2017-06-15T05:53:54.182Z,23.03
2017-06-15T05:54:54.118Z,23.06
2017-06-15T05:55:54.059Z,23.03
2017-06-15T05:56:53.994Z,23.06
2017-06-15T05:57:53.931Z,23.05
2017-06-15T05:58:53.873Z,23.03
2017-06-15T05:59:53.808Z,23.05
2017-06-15T06:00:53.743Z,23
2017-06-15T06:01:53.686Z,23
2017-06-15T06:02:53.621Z,23.02
2017-06-15T06:03:53.227Z,23.09
2017-06-15T06:04:53.493Z,23.03
2017-06-15T06:05:53.431Z,23.05
2017-06-15T06:06:53.369Z,23.02
2017-06-15T06:07:53.306Z,23.05
2017-06-15T06:08:53.244Z,23.05
2017-06-15T06:09:53.183Z,23.02
2017-06-15T06:10:53.165Z,23.03
2017-06-15T06:11:52.730Z,23
2017-06-15T06:12:52.992Z,23.06
2017-06-15T06:13:52.933Z,23.06
2017-06-15T06:14:52.873Z,23.02
2017-06-15T06:15:52.808Z,23.03
2017-06-15T06:16:52.743Z,23.02
2017-06-15T06:17:52.682Z,23.03
2017-06-15T06:18:52.621Z,23.06
2017-06-15T06:19:52.557Z,23.05
2017-06-15T06:20:52.506Z,23.02
2017-06-15T06:21:52.435Z,23.06
2017-06-15T06:22:52.373Z,23.02
2017-06-15T06:23:52.311Z,23
2017-06-15T06:24:52.250Z,23
2017-06-15T06:25:52.184Z,23.03
2017-06-15T06:26:52.123Z,22.99
2017-06-15T06:27:52.061Z,23.02
2017-06-15T06:28:51.345Z,23.08
2017-06-15T06:29:51.934Z,23.05
2017-06-15T06:30:51.543Z,23.02
2017-06-15T06:31:51.815Z,23.02
2017-06-15T06:32:51.746Z,23.06
2017-06-15T06:33:51.684Z,22.99
2017-06-15T06:34:51.293Z,23.02
2017-06-15T06:35:51.558Z,23.03
2017-06-15T06:36:51.500Z,23.05
2017-06-15T06:37:51.439Z,22.99
2017-06-15T06:38:51.375Z,23.05
2017-06-15T06:39:51.309Z,23.06
2017-06-15T06:40:51.248Z,23.05
2017-06-15T06:41:51.187Z,23.02
2017-06-15T06:42:51.125Z,23.12
2017-06-15T06:43:51.061Z,23.05
2017-06-15T06:44:51.000Z,23.02
2017-06-15T06:45:50.934Z,23.06
2017-06-15T06:46:50.871Z,23
2017-06-15T06:47:50.818Z,23
2017-06-15T06:48:50.749Z,23.02
2017-06-15T06:49:50.686Z,23.06
2017-06-15T06:50:50.623Z,23.06
2017-06-15T06:51:50.568Z,23
2017-06-15T06:52:50.497Z,23.06
2017-06-15T06:53:50.438Z,23.05
2017-06-15T06:54:50.375Z,23.03
2017-06-15T06:55:50.310Z,23.06
2017-06-15T06:56:50.249Z,23.02
2017-06-15T06:57:50.186Z,23.02
2017-06-15T06:58:50.127Z,23.08
2017-06-15T06:59:50.064Z,23.12
2017-06-15T07:00:49.673Z,23.06
2017-06-15T07:01:49.939Z,23.09
2017-06-15T07:02:49.876Z,23.08
2017-06-15T07:03:49.821Z,23.06
2017-06-15T07:04:49.987Z,23.1
2017-06-15T07:05:49.357Z,23.08
2017-06-15T07:06:49.624Z,23.13
2017-06-15T07:07:49.565Z,23.15
2017-06-15T07:08:49.508Z,23.13
2017-06-15T07:09:49.108Z,23.17
2017-06-15T07:10:49.047Z,23.18
2017-06-15T07:11:49.315Z,23.24
2017-06-15T07:12:49.250Z,23.24
2017-06-15T07:13:49.195Z,23.25
2017-06-15T07:14:49.126Z,23.21
2017-06-15T07:15:49.069Z,23.24
2017-06-15T07:16:49.000Z,23.24
2017-06-15T07:17:48.938Z,23.24
2017-06-15T07:18:48.878Z,23.18
2017-06-15T07:19:48.818Z,23.28
2017-06-15T07:20:48.750Z,23.25
2017-06-15T07:21:48.694Z,23.28
2017-06-15T07:22:48.631Z,23.36
2017-06-15T07:23:48.598Z,23.31
2017-06-15T07:24:48.598Z,23.28
2017-06-15T07:25:48.438Z,23.28
2017-06-15T07:26:48.381Z,23.34
2017-06-15T07:27:48.316Z,23.36
2017-06-15T07:28:48.254Z,23.32
2017-06-15T07:29:48.192Z,23.36
2017-06-15T07:30:48.172Z,23.41
2017-06-15T07:31:48.065Z,23.37
2017-06-15T07:32:48.008Z,23.44
2017-06-15T07:33:47.951Z,23.37
2017-06-15T07:34:47.552Z,23.48
2017-06-15T07:35:47.490Z,23.43
2017-06-15T07:36:47.767Z,23.44
2017-06-15T07:37:47.701Z,23.47
2017-06-15T07:38:47.634Z,23.44
2017-06-15T07:39:47.581Z,23.43
2017-06-15T07:40:47.507Z,23.47
2017-06-15T07:41:47.121Z,23.5
2017-06-15T07:42:47.386Z,23.54
2017-06-15T07:43:47.324Z,23.51
2017-06-15T07:44:46.932Z,23.39
2017-06-15T07:45:47.206Z,23.46
2017-06-15T07:46:47.143Z,23.5
2017-06-15T07:47:47.075Z,23.47
2017-06-15T07:48:47.013Z,23.48
2017-06-15T07:49:46.947Z,23.48
2017-06-15T07:50:46.890Z,23.55
2017-06-15T07:51:46.829Z,23.5
2017-06-15T07:52:46.763Z,23.56
2017-06-15T07:53:46.373Z,23.56
2017-06-15T07:54:46.638Z,23.54
2017-06-15T07:55:46.576Z,23.56
2017-06-15T07:56:46.518Z,23.65
2017-06-15T07:57:46.458Z,23.58
2017-06-15T07:58:46.674Z,23.5
2017-06-15T07:59:46.000Z,23.51
2017-06-15T08:00:46.273Z,23.48
2017-06-15T08:01:45.878Z,23.55
2017-06-15T08:02:46.148Z,23.5
2017-06-15T08:03:46.081Z,23.48
2017-06-15T08:04:46.023Z,23.5
2017-06-15T08:05:45.956Z,23.51
2017-06-15T08:06:45.901Z,23.5
2017-06-15T08:07:45.833Z,23.56
2017-06-15T08:08:45.772Z,23.58
2017-06-15T08:09:45.708Z,23.62
2017-06-15T08:10:45.646Z,23.63
2017-06-15T08:11:45.586Z,23.71
2017-06-15T08:12:45.192Z,23.74
2017-06-15T08:13:45.458Z,23.74
2017-06-15T08:14:45.399Z,23.83
2017-06-15T08:15:45.386Z,23.8
2017-06-15T08:16:45.273Z,23.8
2017-06-15T08:17:45.214Z,23.78
2017-06-15T08:18:45.156Z,23.77
2017-06-15T08:19:45.096Z,23.76
2017-06-15T08:20:45.029Z,23.83
2017-06-15T08:21:44.968Z,23.83
2017-06-15T08:22:44.905Z,23.86
2017-06-15T08:23:44.843Z,23.73
2017-06-15T08:24:44.785Z,23.8
2017-06-15T08:25:44.391Z,23.81
2017-06-15T08:26:44.655Z,23.84
2017-06-15T08:27:44.266Z,23.93
2017-06-15T08:28:44.207Z,23.88
2017-06-15T08:29:44.470Z,23.87
2017-06-15T08:30:44.618Z,23.98
2017-06-15T08:31:44.019Z,23.96
2017-06-15T08:32:43.835Z,23.98
2017-06-15T08:33:44.228Z,23.92
2017-06-15T08:34:44.173Z,23.91
2017-06-15T08:35:44.098Z,23.88
2017-06-15T08:36:44.039Z,23.88
2017-06-15T08:37:43.976Z,23.99
2017-06-15T08:38:43.927Z,23.99
2017-06-15T08:39:43.523Z,23.98
2017-06-15T08:40:43.799Z,24.02
2017-06-15T08:41:43.762Z,24.03
2017-06-15T08:42:43.669Z,24.08
2017-06-15T08:43:43.607Z,24.1
2017-06-15T08:44:43.550Z,24.13
2017-06-15T08:45:43.488Z,24.18
2017-06-15T08:46:43.422Z,24.14
2017-06-15T08:47:43.365Z,24.18
2017-06-15T08:48:42.978Z,24.18
2017-06-15T08:49:43.247Z,24.17
2017-06-15T08:50:43.176Z,24.16
2017-06-15T08:51:42.788Z,24.14
2017-06-15T08:52:43.086Z,24.14
2017-06-15T08:53:42.993Z,24.13
2017-06-15T08:54:42.929Z,24.18
2017-06-15T08:55:42.869Z,24.26
2017-06-15T08:56:42.806Z,24.26
2017-06-15T08:57:42.747Z,24.3
2017-06-15T08:58:42.683Z,24.23
2017-06-15T08:59:42.296Z,24.39
2017-06-15T09:00:42.563Z,24.29
2017-06-15T09:01:42.508Z,24.3
2017-06-15T09:02:42.749Z,24.29
2017-06-15T09:03:42.421Z,24.36
2017-06-15T09:04:42.312Z,24.36
2017-06-15T09:05:42.256Z,24.38
2017-06-15T09:06:42.193Z,24.42
2017-06-15T09:07:42.128Z,24.33
2017-06-15T09:08:42.076Z,24.36
2017-06-15T09:09:42.006Z,24.39
2017-06-15T09:10:41.967Z,24.39
2017-06-15T09:11:41.882Z,24.33
2017-06-15T09:12:41.823Z,24.39
2017-06-15T09:13:41.764Z,24.45
2017-06-15T09:14:41.701Z,24.48
2017-06-15T09:15:41.709Z,24.42
2017-06-15T09:16:41.345Z,24.38
2017-06-15T09:17:41.286Z,24.43
2017-06-15T09:18:41.468Z,24.47
2017-06-15T09:19:41.450Z,24.57
2017-06-15T09:20:41.335Z,24.5
2017-06-15T09:21:40.939Z,24.39
2017-06-15T09:22:41.212Z,24.36
2017-06-15T09:23:41.234Z,24.28
2017-06-15T09:24:40.798Z,24.32
2017-06-15T09:25:41.306Z,24.28
2017-06-15T09:26:41.118Z,24.24
2017-06-15T09:27:40.971Z,24.26
2017-06-15T09:28:40.998Z,24.26
2017-06-15T09:29:40.902Z,24.23
2017-06-15T09:30:40.798Z,24.2
2017-06-15T09:31:40.668Z,24.24
2017-06-15T09:32:40.601Z,24.18
2017-06-15T09:33:40.534Z,24.13
2017-06-15T09:34:40.471Z,24.2
2017-06-15T09:35:40.562Z,24.23
2017-06-15T09:36:40.352Z,24.23
2017-06-15T09:37:39.959Z,24.23
2017-06-15T09:38:40.225Z,24.13
2017-06-15T09:39:40.169Z,24.13
2017-06-15T09:40:40.108Z,24.16
2017-06-15T09:41:40.048Z,24.13
2017-06-15T09:42:39.663Z,24.08
2017-06-15T09:43:39.921Z,24.06
2017-06-15T09:44:39.868Z,24.14
2017-06-15T09:45:39.891Z,24.02
2017-06-15T09:46:39.409Z,24.08
2017-06-15T09:47:39.348Z,24.11
2017-06-15T09:48:39.628Z,24.03
2017-06-15T09:49:39.558Z,24.18
2017-06-15T09:50:39.178Z,24.16
2017-06-15T09:51:39.426Z,24.14
2017-06-15T09:52:39.036Z,24.16
2017-06-15T09:53:39.340Z,24.06
2017-06-15T09:54:39.247Z,24.06
2017-06-15T09:55:39.178Z,24.11
2017-06-15T09:56:39.119Z,24.06
2017-06-15T09:57:39.105Z,24.03
2017-06-15T09:58:38.995Z,23.99
2017-06-15T09:59:38.933Z,23.93
2017-06-15T10:00:38.873Z,24.03
2017-06-15T10:01:38.810Z,23.95
2017-06-15T10:02:38.433Z,24.05
2017-06-15T10:03:38.688Z,24.01
2017-06-15T10:04:38.626Z,24.02
2017-06-15T10:05:38.589Z,24.08
2017-06-15T10:06:38.510Z,24.05
2017-06-15T10:07:38.440Z,24.05
2017-06-15T10:08:38.384Z,24.05
2017-06-15T10:09:38.318Z,24.1
2017-06-15T10:10:38.255Z,24.01
2017-06-15T10:11:38.192Z,24.13
2017-06-15T10:12:38.130Z,24.06
2017-06-15T10:13:38.076Z,23.98
2017-06-15T10:14:38.007Z,24.06
2017-06-15T10:15:38.020Z,24.05
2017-06-15T10:16:37.884Z,24.02
2017-06-15T10:17:37.505Z,23.98
2017-06-15T10:18:37.764Z,24.06
2017-06-15T10:19:37.374Z,24.08
2017-06-15T10:20:37.639Z,24.03
2017-06-15T10:21:37.250Z,24.02
2017-06-15T10:22:37.194Z,24.05
2017-06-15T10:23:37.451Z,24.02
2017-06-15T10:24:37.404Z,24.02
2017-06-15T10:25:37.330Z,24.14
2017-06-15T10:26:37.276Z,24.02
2017-06-15T10:27:37.214Z,24.01
2017-06-15T10:28:37.145Z,24.08
2017-06-15T10:29:37.082Z,24.03
2017-06-15T10:30:37.022Z,24.11
2017-06-15T10:31:36.964Z,24.06
2017-06-15T10:32:36.574Z,24.14
2017-06-15T10:33:36.836Z,24.05
2017-06-15T10:34:36.848Z,24.13
2017-06-15T10:35:36.716Z,24.11
2017-06-15T10:36:36.322Z,24.16
2017-06-15T10:37:36.593Z,24.06
2017-06-15T10:38:36.582Z,24.13
2017-06-15T10:39:36.467Z,24.03
2017-06-15T10:40:36.412Z,24.13
2017-06-15T10:41:36.348Z,24.02
2017-06-15T10:42:36.281Z,24.06
2017-06-15T10:43:36.223Z,23.96
2017-06-15T10:44:36.179Z,24.03
2017-06-15T10:45:36.137Z,24.08
2017-06-15T10:46:36.038Z,24.01
2017-06-15T10:47:35.649Z,24.03
2017-06-15T10:48:35.588Z,23.98
2017-06-15T10:49:35.851Z,24.05
2017-06-15T10:50:35.795Z,23.98
2017-06-15T10:51:35.728Z,24.03
2017-06-15T10:52:35.696Z,24.06
2017-06-15T10:53:35.742Z,23.95
2017-06-15T10:54:35.576Z,23.91
2017-06-15T10:55:35.611Z,23.95
2017-06-15T10:56:35.567Z,23.95
2017-06-15T10:57:35.417Z,23.92
2017-06-15T10:58:35.299Z,23.98
2017-06-15T10:59:34.974Z,23.88
2017-06-15T11:00:35.956Z,23.95
2017-06-15T11:01:35.173Z,23.96
2017-06-15T11:02:35.099Z,23.88
2017-06-15T11:03:34.989Z,23.88
2017-06-15T11:04:34.932Z,23.87
2017-06-15T11:05:34.867Z,23.99
2017-06-15T11:06:34.805Z,23.91
2017-06-15T11:07:34.748Z,23.98
2017-06-15T11:08:34.685Z,23.91
2017-06-15T11:09:34.618Z,23.91
2017-06-15T11:10:34.562Z,23.91
2017-06-15T11:11:34.496Z,23.92
2017-06-15T11:12:34.443Z,23.91
2017-06-15T11:13:34.384Z,23.83
2017-06-15T11:14:34.325Z,23.86
2017-06-15T11:15:34.257Z,23.88
2017-06-15T11:16:34.188Z,23.86
2017-06-15T11:17:34.128Z,23.86
2017-06-15T11:18:34.119Z,23.88
2017-06-15T11:19:33.738Z,23.83
2017-06-15T11:20:33.283Z,23.88
2017-06-15T11:21:33.878Z,23.88
2017-06-15T11:22:33.836Z,23.87
2017-06-15T11:23:33.753Z,23.92
2017-06-15T11:24:33.693Z,23.8
2017-06-15T11:25:33.632Z,23.78
2017-06-15T11:26:33.243Z,23.88
2017-06-15T11:27:33.507Z,23.93
2017-06-15T11:28:33.445Z,23.93
2017-06-15T11:29:33.386Z,23.95
2017-06-15T11:30:33.321Z,23.92
2017-06-15T11:31:33.260Z,23.92
2017-06-15T11:32:33.206Z,23.95
2017-06-15T11:33:33.136Z,23.81
2017-06-15T11:34:32.748Z,23.87
2017-06-15T11:35:32.693Z,23.87
2017-06-15T11:36:32.973Z,23.88
2017-06-15T11:37:32.888Z,23.92
2017-06-15T11:38:32.826Z,23.84
2017-06-15T11:39:32.438Z,23.98
2017-06-15T11:40:32.705Z,23.88
2017-06-15T11:41:32.642Z,23.87
2017-06-15T11:42:32.588Z,23.88
2017-06-15T11:43:32.541Z,23.92
2017-06-15T11:44:32.459Z,23.96
2017-06-15T11:45:32.066Z,23.96
2017-06-15T11:46:32.334Z,23.92
2017-06-15T11:47:32.273Z,23.84
2017-06-15T11:48:32.209Z,23.96
2017-06-15T11:49:32.151Z,23.78
2017-06-15T11:50:32.089Z,23.86
2017-06-15T11:51:31.698Z,23.81
2017-06-15T11:52:31.965Z,23.92
2017-06-15T11:53:31.900Z,23.84
2017-06-15T11:54:31.842Z,23.81
2017-06-15T11:55:31.778Z,23.84
2017-06-15T11:56:31.726Z,23.83
2017-06-15T11:57:31.660Z,23.92
2017-06-15T11:58:31.596Z,23.81
2017-06-15T11:59:31.531Z,23.83
2017-06-15T12:00:31.468Z,23.86
2017-06-15T12:01:31.097Z,23.88
2017-06-15T12:02:31.343Z,23.83
2017-06-15T12:03:31.364Z,23.76
2017-06-15T12:04:31.224Z,23.8
2017-06-15T12:05:31.176Z,23.84
2017-06-15T12:06:31.100Z,23.84
2017-06-15T12:07:31.041Z,23.91
2017-06-15T12:08:30.976Z,23.83
2017-06-15T12:09:30.915Z,23.78
2017-06-15T12:10:30.852Z,23.8
2017-06-15T12:11:30.790Z,23.86
2017-06-15T12:12:30.732Z,23.8
2017-06-15T12:13:30.337Z,23.8
2017-06-15T12:14:30.611Z,23.83
2017-06-15T12:15:30.540Z,23.77
2017-06-15T12:16:30.162Z,23.88
2017-06-15T12:17:30.413Z,23.78
2017-06-15T12:18:30.369Z,23.83
2017-06-15T12:19:30.293Z,23.86
2017-06-15T12:20:30.412Z,23.81
2017-06-15T12:21:29.840Z,23.84
2017-06-15T12:22:30.116Z,23.69
2017-06-15T12:23:30.049Z,23.86
2017-06-15T12:24:29.659Z,23.78
2017-06-15T12:25:29.921Z,23.83
2017-06-15T12:26:29.534Z,23.84
2017-06-15T12:27:29.798Z,23.83
2017-06-15T12:28:29.408Z,23.78
2017-06-15T12:29:29.686Z,23.86
2017-06-15T12:30:29.611Z,23.84
2017-06-15T12:31:29.562Z,23.84
2017-06-15T12:32:29.487Z,23.83
2017-06-15T12:33:29.430Z,23.8
2017-06-15T12:34:29.366Z,23.76
2017-06-15T12:35:29.303Z,23.8
2017-06-15T12:36:29.238Z,23.84
2017-06-15T12:37:29.180Z,23.8
2017-06-15T12:38:28.788Z,23.8
2017-06-15T12:39:29.052Z,23.78
2017-06-15T12:40:28.992Z,23.83
2017-06-15T12:41:28.928Z,23.83
2017-06-15T12:42:28.869Z,23.8
2017-06-15T12:43:28.477Z,23.76
2017-06-15T12:44:28.751Z,23.81
2017-06-15T12:45:28.685Z,23.8
2017-06-15T12:46:28.628Z,23.8
2017-06-15T12:47:28.560Z,23.83
2017-06-15T12:48:28.172Z,23.88
2017-06-15T12:49:28.437Z,23.81
2017-06-15T12:50:28.373Z,23.83
2017-06-15T12:51:28.314Z,23.8
2017-06-15T12:52:27.922Z,23.78
2017-06-15T12:53:28.196Z,23.84
2017-06-15T12:54:28.130Z,23.81
2017-06-15T12:55:28.065Z,23.84
2017-06-15T12:56:28.002Z,23.84
2017-06-15T12:57:27.939Z,23.84
2017-06-15T12:58:27.220Z,23.8